NACIONALNO OTVORENO PRVENSTVO HRVATSKE U KARTINGU
NAGRADA VINKOVAČKIH JESENI '09
Vinkovci, 30.08.2009.

KLASA I
Poz. S.b. Vozač Klub Nac. Krug Vrijeme Zaostatak Bod.
1. 103 Matija Kovačić KK 1 Zagreb HR 5 4:44,370 0:00,000 -
2. 105 Jan Pokos AK Speedy HR 5 4:48,539 0:04,169 -
3. 107 Adrian Sekulić AKK Podravina Koprivnica HR 5 4:50,408 0:06,038 -
4. 108 Dorian Vargović AMKK Cobra HR 5 5:05,176 0:20,806 -
5. 111 Tin Vorkapić KK Koprivnica HR 5 5:45,468 1:01,098 -
 
KLASA II - 1. UTRKA
Poz. S.b. Vozač Klub Nac. Krug Vrijeme Zaostatak Bod.
1. 206 Damian Sekulić KU Novi Marof HR 7 5:50,013 0:00,000 20
2. 217 Muhammad Pličanić AK Info Kart HR 7 5:50,397 0:00,384 15
3. 216 Fran Tisaj KK Koprivnica HR 7 5:52,467 0:02,454 12
4. 219 Mihael Meretaj AMKK Cobra HR 7 6:14,903 0:24,890 10
5. 218 Dorijan Čargonja AKK Podravina Koprivnica HR 7 6:17,937 0:27,924 8
 
KLASA II - 2. UTRKA
Poz. S.b. Vozač Klub Nac. Krug Vrijeme Zaostatak Bod.
1. 206 Damian Sekulić KU Novi Marof HR 7 5:47,706 0:00,000 20
2. 217 Muhammad Pličanić AK Info Kart HR 7 5:47,857 0:00,151 15
3. 216 Fran Tisaj KK Koprivnica HR 7 5:50,523 0:02,817 12
4. 219 Mihael Meretaj AMKK Cobra HR 6 5:35,860 1 krug 10
- 218 Dorijan Čargonja AKK Podravina Koprivnica HR 0 odustao -
 
KLASA III - 1. UTRKA
Poz. S.b. Vozač Klub Nac. Krug Vrijeme Zaostatak Bod.
1. 301 Juraj Kovačić KK 1 Zagreb HR 7 5:18,617 0:00,000 20
2. 303 Moni Petrović AK Speedy HR 7 5:22,401 0:03,784 15
3. 305 William Mucak KK 1 Zagreb HR 7 5:23,411 0:04,794 12
4. 304 Dino Paleka KK Koprivnica HR 7 5:25,739 0:07,122 10
5. 302 Benjamin Žganec KK 1 Zagreb HR 7 5:29,312 0:10,695 8
 
KLASA III - 2. UTRKA
Poz. S.b. Vozač Klub Nac. Krug Vrijeme Zaostatak Bod.
1. 301 Juraj Kovačić KK 1 Zagreb HR 7 5:20,432 0:00,000 20
2. 303 Moni Petrović AK Speedy HR 7 5:23,642 0:03,210 15
3. 305 William Mucak KK 1 Zagreb HR 7 5:23,761 0:03,329 12
4. 304 Dino Paleka KK Koprivnica HR 7 5:26,700 0:06,268 10
5. 302 Benjamin Žganec KK 1 Zagreb HR 7 5:29,802 0:09,370 8
 
KLASA V - 1. UTRKA
Poz. S.b. Vozač Klub Nac. Krug Vrijeme Zaostatak Bod.
1. 501 Nikola Belohradski AKK Zanatlija HR 9 5:59,520 0:00,000 20
2. 509 Mislav Mikulec AKK Podravina Koprivnica HR 9 5:59,998 0:00,478 15
3. 507 Martin Kodrić KK 1 Zagreb HR 9 6:05,070 0:05,550 12
4. 506 Dominik Đurđ KK Koprivnica HR 9 6:11,569 0:12,049 10
5. 505 Antun Bošnjak KK Koprivnica HR 9 6:15,932 0:16,412 8
 
KLASA V - 2. UTRKA
Poz. S.b. Vozač Klub Nac. Krug Vrijeme Zaostatak Bod.
1. 501 Nikola Belohradski AKK Zanatlija HR 9 5:54,760 0:00,000 20
2. 507 Martin Kodrić KK 1 Zagreb HR 9 5:59,191 0:04,431 15
3. 509 Mislav Mikulec AKK Podravina Koprivnica HR 9 6:01,043 0:06,283 12
4. 506 Dominik Đurđ KK Koprivnica HR 9 6:16,716 0:21,956 10
5. 505 Antun Bošnjak KK Koprivnica HR 9 6:19,095 0:24,335 8
 
KLASA VII - 1. UTRKA
Poz. S.b. Vozač Klub Nac. Krug Vrijeme Zaostatak Bod.
1. 721 Marko Sitarić KK Koprivnica HR 18 11:56,150 0:00,000 20
2. 717 Miroslav Šajnić KK 1 Zagreb HR 18 12:02,237 0:06,087 15
3. 709 Branimir Rojko KK Koprivnica HR 18 12:02,904 0:06,754 12
4. 720 Zlatko Kovačić KK Koprivnica HR 17 11:57,813 1 krug 10
5. 704 Zlatko Banić SAK Split HR 17 12:10,911 1 krug 8
- 719 Žarko Martinjak KK Koprivnica HR 12 odustao -
- 716 Siniša Mišić AMKK Cobra HR 4 odustao -
 
KLASA VII - 2. UTRKA
Poz. S.b. Vozač Klub Nac. Krug Vrijeme Zaostatak Bod.
1. 717 Miroslav Šajnić KK 1 Zagreb HR 18 12:06,428 0:00,000 20
2. 709 Branimir Rojko KK Koprivnica HR 18 12:08,436 0:02,008 15
3. 721 Marko Sitarić KK Koprivnica HR 18 12:25,943 0:19,515 12
4. 704 Zlatko Banić SAK Split HR 17 12:12,123 1 krug 10
5. 720 Zlatko Kovačić KK Koprivnica HR 17 12:29,560 1 krug 8
6. 716 Siniša Mišić AMKK Cobra HR 17 12:51,142 1 krug 6
- 719 Žarko Martinjak KK Koprivnica HR 0 nije startao -
 
KLASA VIII - 1. UTRKA
Poz. S.b. Vozač Klub Nac. Krug Vrijeme Zaostatak Bod.
1. 805 Sven Gorup AKK Zanatlija HR 14 9:10,662 0:00,000 20
2. 804 Karlo Golub KK 1 Zagreb HR 14 9:11,360 0:00,698 15
3. 813 Borna Vlašić AKK Podravina Koprivnica HR 14 9:12,519 0:01,857 12
4. 811 Sanjin Trope AK Quickly HR 14 9:17,564 0:06,902 10
5. 816 Tomislav Pavlić KK 1 Zagreb HR 14 9:24,047 0:13,385 8
6. 812 Igor Vargović AMKK Cobra HR 14 9:42,262 0:31,600 6
7. 817 Antun Kovač AKK Podravina Koprivnica HR 13 9:21,121 1 krug 4
 
KLASA VIII - 2. UTRKA
Poz. S.b. Vozač Klub Nac. Krug Vrijeme Zaostatak Bod.
1. 804 Karlo Golub KK 1 Zagreb HR 15 9:53,205 0:00,000 20
2. 813 Borna Vlašić AKK Podravina Koprivnica HR 15 9:55,816 0:02,611 15
3. 805 Sven Gorup AKK Zanatlija HR 15 10:00,577 0:07,372 12
4. 816 Tomislav Pavlić KK 1 Zagreb HR 15 10:04,351 0:11,146 10
5. 817 Antun Kovač AKK Podravina Koprivnica HR 15 10:32,877 0:39,672 8
6. 812 Igor Vargović AMKK Cobra HR 14 10:25,035 1 krug 6
7. 811 Sanjin Trope AK Quickly HR 12 8:02,427 3 kruga 4
 
KLASA IX - 1. UTRKA
Poz. S.b. Vozač Klub Nac. Krug Vrijeme Zaostatak Bod.
1. 901 Samir Smailagić AK Info Kart HR 9 6:38,280 0:00,000 20
2. 904 Alan Vorkapić KK Koprivnica HR 9 6:38,793 0:00,513 15
3. 908 Ivijan Rajnović AMKK Cobra HR 9 6:39,435 0:01,155 12
4. 915 Tomislav Lovrenc AKK Podravina Koprivnica HR 9 6:40,360 0:02,080 10
5. 907 Tomislav Kelbel KK Koprivnica HR 9 6:50,919 0:12,639 8
 
KLASA IX - 2. UTRKA
Poz. S.b. Vozač Klub Nac. Krug Vrijeme Zaostatak Bod.
1. 901 Samir Smailagić AK Info Kart HR 9 6:37,595 0:00,000 20
2. 915 Tomislav Lovrenc AKK Podravina Koprivnica HR 9 6:37,760 0:00,165 15
3. 904 Alan Vorkapić KK Koprivnica HR 9 6:38,814 0:01,219 12
4. 908 Ivijan Rajnović AMKK Cobra HR 9 6:44,575 0:06,980 10
5. 907 Tomislav Kelbel KK Koprivnica HR 9 6:45,016 0:07,421 8
 
PRVENSTVO HRVATSKE